sensor_id;sensor_type;location;lat;lon;timestamp;P1;durP1;ratioP1;P2;durP2;ratioP2
13797;SDS011;6970;51.340;3.240;2022-11-15T00:01:06;46.67;;;27.60;;
13797;SDS011;6970;51.340;3.240;2022-11-15T00:03:35;41.53;;;27.80;;
13797;SDS011;6970;51.340;3.240;2022-11-15T00:06:03;43.10;;;27.20;;
13797;SDS011;6970;51.340;3.240;2022-11-15T00:08:31;43.00;;;25.93;;
13797;SDS011;6970;51.340;3.240;2022-11-15T00:10:59;39.40;;;26.07;;
13797;SDS011;6970;51.340;3.240;2022-11-15T00:13:28;38.43;;;25.53;;
13797;SDS011;6970;51.340;3.240;2022-11-15T00:15:57;32.67;;;24.00;;
13797;SDS011;6970;51.340;3.240;2022-11-15T00:18:25;33.67;;;21.80;;
13797;SDS011;6970;51.340;3.240;2022-11-15T00:20:53;31.43;;;22.90;;
13797;SDS011;6970;51.340;3.240;2022-11-15T00:23:19;34.20;;;21.53;;
13797;SDS011;6970;51.340;3.240;2022-11-15T00:25:46;31.17;;;22.17;;
13797;SDS011;6970;51.340;3.240;2022-11-15T00:28:13;31.07;;;20.60;;
13797;SDS011;6970;51.340;3.240;2022-11-15T00:30:40;30.00;;;20.70;;
13797;SDS011;6970;51.340;3.240;2022-11-15T00:35:37;29.57;;;20.23;;
13797;SDS011;6970;51.340;3.240;2022-11-15T00:38:04;30.80;;;20.13;;
13797;SDS011;6970;51.340;3.240;2022-11-15T00:40:31;29.30;;;19.63;;
13797;SDS011;6970;51.340;3.240;2022-11-15T00:42:58;27.83;;;19.17;;
13797;SDS011;6970;51.340;3.240;2022-11-15T00:45:25;24.97;;;19.83;;
13797;SDS011;6970;51.340;3.240;2022-11-15T00:47:53;28.20;;;18.93;;
13797;SDS011;6970;51.340;3.240;2022-11-15T00:50:19;28.87;;;20.17;;
13797;SDS011;6970;51.340;3.240;2022-11-15T00:52:46;25.17;;;19.23;;
13797;SDS011;6970;51.340;3.240;2022-11-15T00:55:14;27.97;;;19.20;;
13797;SDS011;6970;51.340;3.240;2022-11-15T00:57:42;26.20;;;18.87;;
13797;SDS011;6970;51.340;3.240;2022-11-15T01:00:10;25.80;;;18.47;;
13797;SDS011;6970;51.340;3.240;2022-11-15T01:02:37;27.33;;;17.20;;
13797;SDS011;6970;51.340;3.240;2022-11-15T01:05:04;24.87;;;16.67;;
13797;SDS011;6970;51.340;3.240;2022-11-15T01:07:32;22.70;;;16.10;;
13797;SDS011;6970;51.340;3.240;2022-11-15T01:09:59;21.27;;;15.37;;
13797;SDS011;6970;51.340;3.240;2022-11-15T01:12:26;20.27;;;15.07;;
13797;SDS011;6970;51.340;3.240;2022-11-15T01:14:54;23.97;;;15.33;;
13797;SDS011;6970;51.340;3.240;2022-11-15T01:17:21;18.80;;;13.57;;
13797;SDS011;6970;51.340;3.240;2022-11-15T01:19:48;20.93;;;12.83;;
13797;SDS011;6970;51.340;3.240;2022-11-15T01:22:15;17.90;;;11.87;;
13797;SDS011;6970;51.340;3.240;2022-11-15T01:24:42;15.37;;;10.70;;
13797;SDS011;6970;51.340;3.240;2022-11-15T01:27:09;13.03;;;9.17;;
13797;SDS011;6970;51.340;3.240;2022-11-15T01:29:36;15.50;;;9.87;;
13797;SDS011;6970;51.340;3.240;2022-11-15T01:32:03;21.50;;;9.43;;
13797;SDS011;6970;51.340;3.240;2022-11-15T01:34:30;15.90;;;9.20;;
13797;SDS011;6970;51.340;3.240;2022-11-15T01:36:57;13.13;;;7.97;;
13797;SDS011;6970;51.340;3.240;2022-11-15T01:39:25;12.90;;;8.13;;
13797;SDS011;6970;51.340;3.240;2022-11-15T01:41:52;22.03;;;8.20;;
13797;SDS011;6970;51.340;3.240;2022-11-15T01:47:13;15.97;;;8.20;;
13797;SDS011;6970;51.340;3.240;2022-11-15T01:49:51;15.37;;;9.30;;
13797;SDS011;6970;51.340;3.240;2022-11-15T01:52:40;13.67;;;8.47;;
13797;SDS011;6970;51.340;3.240;2022-11-15T01:57:41;13.00;;;7.40;;
13797;SDS011;6970;51.340;3.240;2022-11-15T02:00:11;13.57;;;7.73;;
13797;SDS011;6970;51.340;3.240;2022-11-15T02:02:39;10.30;;;6.80;;
13797;SDS011;6970;51.340;3.240;2022-11-15T02:05:06;19.37;;;7.73;;
13797;SDS011;6970;51.340;3.240;2022-11-15T02:07:34;14.83;;;6.30;;
13797;SDS011;6970;51.340;3.240;2022-11-15T02:10:04;11.47;;;6.13;;
13797;SDS011;6970;51.340;3.240;2022-11-15T02:12:39;12.07;;;6.30;;
13797;SDS011;6970;51.340;3.240;2022-11-15T02:15:06;13.90;;;6.17;;
13797;SDS011;6970;51.340;3.240;2022-11-15T02:20:23;8.03;;;5.50;;
13797;SDS011;6970;51.340;3.240;2022-11-15T02:23:11;9.97;;;5.87;;
13797;SDS011;6970;51.340;3.240;2022-11-15T02:36:40;10.20;;;5.47;;
13797;SDS011;6970;51.340;3.240;2022-11-15T02:41:57;15.77;;;6.03;;
13797;SDS011;6970;51.340;3.240;2022-11-15T02:44:37;14.03;;;7.00;;
13797;SDS011;6970;51.340;3.240;2022-11-15T02:47:11;12.33;;;6.57;;
13797;SDS011;6970;51.340;3.240;2022-11-15T02:49:53;10.80;;;6.70;;
13797;SDS011;6970;51.340;3.240;2022-11-15T02:52:23;13.53;;;7.03;;
13797;SDS011;6970;51.340;3.240;2022-11-15T02:54:57;10.83;;;6.00;;
13797;SDS011;6970;51.340;3.240;2022-11-15T02:57:45;11.60;;;5.70;;
13797;SDS011;6970;51.340;3.240;2022-11-15T03:00:23;11.80;;;5.97;;
13797;SDS011;6970;51.340;3.240;2022-11-15T03:08:32;17.00;;;4.93;;
13797;SDS011;6970;51.340;3.240;2022-11-15T03:11:29;8.07;;;4.43;;
13797;SDS011;6970;51.340;3.240;2022-11-15T03:14:08;11.20;;;4.07;;
13797;SDS011;6970;51.340;3.240;2022-11-15T03:22:08;8.17;;;4.20;;
13797;SDS011;6970;51.340;3.240;2022-11-15T03:24:40;7.27;;;3.10;;
13797;SDS011;6970;51.340;3.240;2022-11-15T03:27:10;7.80;;;4.00;;
13797;SDS011;6970;51.340;3.240;2022-11-15T03:29:44;8.13;;;3.33;;
13797;SDS011;6970;51.340;3.240;2022-11-15T03:32:20;9.90;;;3.17;;
13797;SDS011;6970;51.340;3.240;2022-11-15T03:35:14;10.03;;;3.13;;
13797;SDS011;6970;51.340;3.240;2022-11-15T03:40:34;8.30;;;3.13;;
13797;SDS011;6970;51.340;3.240;2022-11-15T03:43:19;9.20;;;3.00;;
13797;SDS011;6970;51.340;3.240;2022-11-15T03:46:05;13.37;;;3.40;;
13797;SDS011;6970;51.340;3.240;2022-11-15T03:48:46;10.50;;;3.53;;
13797;SDS011;6970;51.340;3.240;2022-11-15T03:51:18;5.33;;;2.63;;
13797;SDS011;6970;51.340;3.240;2022-11-15T03:53:45;10.40;;;2.60;;
13797;SDS011;6970;51.340;3.240;2022-11-15T03:56:12;7.17;;;2.60;;
13797;SDS011;6970;51.340;3.240;2022-11-15T03:58:39;9.33;;;3.10;;
13797;SDS011;6970;51.340;3.240;2022-11-15T04:01:06;6.73;;;2.63;;
13797;SDS011;6970;51.340;3.240;2022-11-15T04:03:33;8.40;;;3.27;;
13797;SDS011;6970;51.340;3.240;2022-11-15T04:06:00;5.60;;;2.97;;
13797;SDS011;6970;51.340;3.240;2022-11-15T04:08:27;8.63;;;3.10;;
13797;SDS011;6970;51.340;3.240;2022-11-15T04:10:54;8.40;;;2.60;;
13797;SDS011;6970;51.340;3.240;2022-11-15T04:13:21;8.97;;;2.87;;
13797;SDS011;6970;51.340;3.240;2022-11-15T04:15:48;6.63;;;2.47;;
13797;SDS011;6970;51.340;3.240;2022-11-15T04:18:14;7.33;;;3.07;;
13797;SDS011;6970;51.340;3.240;2022-11-15T04:20:41;7.90;;;3.13;;
13797;SDS011;6970;51.340;3.240;2022-11-15T04:23:26;6.37;;;3.10;;
13797;SDS011;6970;51.340;3.240;2022-11-15T04:26:14;6.03;;;3.07;;
13797;SDS011;6970;51.340;3.240;2022-11-15T04:28:44;7.43;;;2.70;;
13797;SDS011;6970;51.340;3.240;2022-11-15T04:31:29;6.47;;;2.70;;
13797;SDS011;6970;51.340;3.240;2022-11-15T04:33:57;10.20;;;3.50;;
13797;SDS011;6970;51.340;3.240;2022-11-15T04:36:25;7.30;;;3.07;;
13797;SDS011;6970;51.340;3.240;2022-11-15T04:39:10;5.20;;;3.17;;
13797;SDS011;6970;51.340;3.240;2022-11-15T04:41:37;9.43;;;2.60;;
13797;SDS011;6970;51.340;3.240;2022-11-15T04:44:04;9.43;;;2.83;;
13797;SDS011;6970;51.340;3.240;2022-11-15T04:46:31;10.90;;;3.00;;
13797;SDS011;6970;51.340;3.240;2022-11-15T04:48:58;3.90;;;3.13;;
13797;SDS011;6970;51.340;3.240;2022-11-15T04:51:25;7.37;;;3.00;;
13797;SDS011;6970;51.340;3.240;2022-11-15T04:53:52;8.90;;;3.13;;
13797;SDS011;6970;51.340;3.240;2022-11-15T04:56:19;5.53;;;2.93;;
13797;SDS011;6970;51.340;3.240;2022-11-15T04:58:48;5.00;;;2.73;;
13797;SDS011;6970;51.340;3.240;2022-11-15T05:01:16;7.17;;;3.43;;
13797;SDS011;6970;51.340;3.240;2022-11-15T05:03:43;9.17;;;2.67;;
13797;SDS011;6970;51.340;3.240;2022-11-15T05:06:30;8.93;;;3.07;;
13797;SDS011;6970;51.340;3.240;2022-11-15T05:08:57;9.37;;;2.73;;
13797;SDS011;6970;51.340;3.240;2022-11-15T05:11:24;6.50;;;3.00;;
13797;SDS011;6970;51.340;3.240;2022-11-15T05:13:53;8.53;;;2.90;;
13797;SDS011;6970;51.340;3.240;2022-11-15T05:16:21;8.17;;;3.23;;
13797;SDS011;6970;51.340;3.240;2022-11-15T05:18:52;7.53;;;2.80;;
13797;SDS011;6970;51.340;3.240;2022-11-15T05:21:20;5.10;;;2.87;;
13797;SDS011;6970;51.340;3.240;2022-11-15T05:23:47;5.93;;;3.07;;
13797;SDS011;6970;51.340;3.240;2022-11-15T05:26:15;5.17;;;3.33;;
13797;SDS011;6970;51.340;3.240;2022-11-15T05:28:43;5.07;;;3.17;;
13797;SDS011;6970;51.340;3.240;2022-11-15T05:31:11;6.57;;;3.80;;
13797;SDS011;6970;51.340;3.240;2022-11-15T05:33:40;5.93;;;3.43;;
13797;SDS011;6970;51.340;3.240;2022-11-15T05:36:29;6.67;;;4.03;;
13797;SDS011;6970;51.340;3.240;2022-11-15T05:39:01;8.07;;;4.13;;
13797;SDS011;6970;51.340;3.240;2022-11-15T05:41:48;8.00;;;4.50;;
13797;SDS011;6970;51.340;3.240;2022-11-15T05:44:22;6.00;;;3.80;;
13797;SDS011;6970;51.340;3.240;2022-11-15T05:46:50;6.40;;;4.03;;
13797;SDS011;6970;51.340;3.240;2022-11-15T05:49:20;9.83;;;4.47;;
13797;SDS011;6970;51.340;3.240;2022-11-15T05:51:50;16.03;;;5.53;;
13797;SDS011;6970;51.340;3.240;2022-11-15T05:54:19;8.43;;;4.73;;
13797;SDS011;6970;51.340;3.240;2022-11-15T05:56:48;7.00;;;4.87;;
13797;SDS011;6970;51.340;3.240;2022-11-15T05:59:15;8.83;;;5.23;;
13797;SDS011;6970;51.340;3.240;2022-11-15T06:01:43;8.93;;;5.77;;
13797;SDS011;6970;51.340;3.240;2022-11-15T06:04:10;6.57;;;5.50;;
13797;SDS011;6970;51.340;3.240;2022-11-15T06:06:37;11.27;;;5.80;;
13797;SDS011;6970;51.340;3.240;2022-11-15T06:09:04;14.90;;;5.93;;
13797;SDS011;6970;51.340;3.240;2022-11-15T06:11:30;7.43;;;5.70;;
13797;SDS011;6970;51.340;3.240;2022-11-15T06:13:57;11.80;;;6.13;;
13797;SDS011;6970;51.340;3.240;2022-11-15T06:16:24;11.13;;;6.83;;
13797;SDS011;6970;51.340;3.240;2022-11-15T06:18:51;9.17;;;6.60;;
13797;SDS011;6970;51.340;3.240;2022-11-15T06:21:18;12.13;;;6.20;;
13797;SDS011;6970;51.340;3.240;2022-11-15T06:23:45;8.27;;;5.67;;
13797;SDS011;6970;51.340;3.240;2022-11-15T06:26:13;9.13;;;6.37;;
13797;SDS011;6970;51.340;3.240;2022-11-15T06:28:40;15.00;;;6.60;;
13797;SDS011;6970;51.340;3.240;2022-11-15T06:31:08;9.20;;;5.80;;
13797;SDS011;6970;51.340;3.240;2022-11-15T06:33:39;10.13;;;6.33;;
13797;SDS011;6970;51.340;3.240;2022-11-15T06:36:10;9.20;;;6.10;;
13797;SDS011;6970;51.340;3.240;2022-11-15T06:38:43;10.07;;;6.43;;
13797;SDS011;6970;51.340;3.240;2022-11-15T06:41:11;9.43;;;5.97;;
13797;SDS011;6970;51.340;3.240;2022-11-15T06:43:40;9.03;;;6.13;;
13797;SDS011;6970;51.340;3.240;2022-11-15T06:46:07;7.37;;;6.13;;
13797;SDS011;6970;51.340;3.240;2022-11-15T06:48:34;8.67;;;6.17;;
13797;SDS011;6970;51.340;3.240;2022-11-15T06:51:03;8.37;;;5.37;;
13797;SDS011;6970;51.340;3.240;2022-11-15T06:53:30;6.63;;;4.60;;
13797;SDS011;6970;51.340;3.240;2022-11-15T06:55:59;6.13;;;5.40;;
13797;SDS011;6970;51.340;3.240;2022-11-15T06:58:30;6.23;;;5.57;;
13797;SDS011;6970;51.340;3.240;2022-11-15T07:00:58;8.30;;;4.97;;
13797;SDS011;6970;51.340;3.240;2022-11-15T07:03:27;14.83;;;6.00;;
13797;SDS011;6970;51.340;3.240;2022-11-15T07:05:55;12.67;;;6.63;;
13797;SDS011;6970;51.340;3.240;2022-11-15T07:08:30;10.93;;;6.70;;
13797;SDS011;6970;51.340;3.240;2022-11-15T07:10:58;8.43;;;6.60;;
13797;SDS011;6970;51.340;3.240;2022-11-15T07:13:27;9.90;;;6.97;;
13797;SDS011;6970;51.340;3.240;2022-11-15T07:15:56;11.73;;;7.03;;
13797;SDS011;6970;51.340;3.240;2022-11-15T07:18:23;10.47;;;7.20;;
13797;SDS011;6970;51.340;3.240;2022-11-15T07:20:52;9.90;;;7.13;;
13797;SDS011;6970;51.340;3.240;2022-11-15T07:23:19;10.17;;;7.20;;
13797;SDS011;6970;51.340;3.240;2022-11-15T07:25:46;11.73;;;8.70;;
13797;SDS011;6970;51.340;3.240;2022-11-15T07:28:13;9.83;;;8.13;;
13797;SDS011;6970;51.340;3.240;2022-11-15T07:30:40;10.07;;;8.23;;
13797;SDS011;6970;51.340;3.240;2022-11-15T07:33:10;9.23;;;8.30;;
13797;SDS011;6970;51.340;3.240;2022-11-15T07:35:37;10.33;;;8.20;;
13797;SDS011;6970;51.340;3.240;2022-11-15T07:38:04;12.50;;;8.67;;
13797;SDS011;6970;51.340;3.240;2022-11-15T07:40:31;10.93;;;8.97;;
13797;SDS011;6970;51.340;3.240;2022-11-15T07:42:59;13.60;;;8.63;;
13797;SDS011;6970;51.340;3.240;2022-11-15T07:45:41;14.07;;;9.70;;
13797;SDS011;6970;51.340;3.240;2022-11-15T07:48:09;10.53;;;9.37;;
13797;SDS011;6970;51.340;3.240;2022-11-15T07:50:37;8.97;;;8.07;;
13797;SDS011;6970;51.340;3.240;2022-11-15T07:53:09;12.70;;;9.07;;
13797;SDS011;6970;51.340;3.240;2022-11-15T07:55:36;12.00;;;8.47;;
13797;SDS011;6970;51.340;3.240;2022-11-15T07:58:06;10.80;;;8.20;;
13797;SDS011;6970;51.340;3.240;2022-11-15T08:00:35;11.10;;;8.30;;
13797;SDS011;6970;51.340;3.240;2022-11-15T08:03:13;10.97;;;7.30;;
13797;SDS011;6970;51.340;3.240;2022-11-15T08:05:42;7.97;;;6.67;;
13797;SDS011;6970;51.340;3.240;2022-11-15T08:08:10;9.07;;;7.03;;
13797;SDS011;6970;51.340;3.240;2022-11-15T08:10:44;7.00;;;6.30;;
13797;SDS011;6970;51.340;3.240;2022-11-15T08:13:13;7.40;;;6.70;;
13797;SDS011;6970;51.340;3.240;2022-11-15T08:15:43;7.87;;;5.80;;
13797;SDS011;6970;51.340;3.240;2022-11-15T08:20:45;11.00;;;5.83;;
13797;SDS011;6970;51.340;3.240;2022-11-15T08:23:15;8.20;;;5.70;;
13797;SDS011;6970;51.340;3.240;2022-11-15T08:25:42;9.60;;;5.77;;
13797;SDS011;6970;51.340;3.240;2022-11-15T08:28:11;7.73;;;5.13;;
13797;SDS011;6970;51.340;3.240;2022-11-15T08:30:39;9.53;;;5.17;;
13797;SDS011;6970;51.340;3.240;2022-11-15T08:33:13;11.00;;;5.60;;
13797;SDS011;6970;51.340;3.240;2022-11-15T08:35:41;9.70;;;5.73;;
13797;SDS011;6970;51.340;3.240;2022-11-15T08:38:09;9.37;;;4.73;;
13797;SDS011;6970;51.340;3.240;2022-11-15T08:40:38;9.73;;;5.13;;
13797;SDS011;6970;51.340;3.240;2022-11-15T08:43:05;6.13;;;5.00;;
13797;SDS011;6970;51.340;3.240;2022-11-15T08:45:34;9.17;;;5.10;;
13797;SDS011;6970;51.340;3.240;2022-11-15T08:48:02;6.70;;;4.27;;
13797;SDS011;6970;51.340;3.240;2022-11-15T08:50:29;10.37;;;4.67;;
13797;SDS011;6970;51.340;3.240;2022-11-15T08:53:06;7.83;;;4.93;;
13797;SDS011;6970;51.340;3.240;2022-11-15T08:55:38;12.03;;;4.73;;
13797;SDS011;6970;51.340;3.240;2022-11-15T08:58:06;8.73;;;4.57;;
13797;SDS011;6970;51.340;3.240;2022-11-15T09:00:34;7.20;;;4.07;;
13797;SDS011;6970;51.340;3.240;2022-11-15T09:05:32;8.00;;;3.90;;
13797;SDS011;6970;51.340;3.240;2022-11-15T09:08:02;9.27;;;4.37;;
13797;SDS011;6970;51.340;3.240;2022-11-15T09:10:50;9.13;;;3.57;;
13797;SDS011;6970;51.340;3.240;2022-11-15T09:13:20;7.23;;;3.37;;
13797;SDS011;6970;51.340;3.240;2022-11-15T09:15:51;5.33;;;2.80;;
13797;SDS011;6970;51.340;3.240;2022-11-15T09:18:18;6.37;;;2.93;;
13797;SDS011;6970;51.340;3.240;2022-11-15T09:20:49;3.00;;;2.63;;
13797;SDS011;6970;51.340;3.240;2022-11-15T09:23:17;4.17;;;2.33;;
13797;SDS011;6970;51.340;3.240;2022-11-15T09:25:47;5.77;;;2.63;;
13797;SDS011;6970;51.340;3.240;2022-11-15T09:28:16;4.20;;;2.83;;
13797;SDS011;6970;51.340;3.240;2022-11-15T09:30:44;5.13;;;2.53;;
13797;SDS011;6970;51.340;3.240;2022-11-15T09:33:13;5.80;;;2.67;;
13797;SDS011;6970;51.340;3.240;2022-11-15T09:35:40;4.90;;;2.63;;
13797;SDS011;6970;51.340;3.240;2022-11-15T09:38:13;6.13;;;2.47;;
13797;SDS011;6970;51.340;3.240;2022-11-15T09:40:40;3.63;;;1.90;;
13797;SDS011;6970;51.340;3.240;2022-11-15T09:43:11;4.63;;;2.00;;
13797;SDS011;6970;51.340;3.240;2022-11-15T09:45:59;6.30;;;1.80;;
13797;SDS011;6970;51.340;3.240;2022-11-15T09:51:21;6.90;;;2.43;;
13797;SDS011;6970;51.340;3.240;2022-11-15T09:54:16;5.43;;;2.20;;
13797;SDS011;6970;51.340;3.240;2022-11-15T09:57:17;6.23;;;1.77;;
13797;SDS011;6970;51.340;3.240;2022-11-15T10:05:47;5.53;;;1.70;;
13797;SDS011;6970;51.340;3.240;2022-11-15T10:11:19;10.67;;;2.40;;
13797;SDS011;6970;51.340;3.240;2022-11-15T10:14:27;7.90;;;2.10;;
13797;SDS011;6970;51.340;3.240;2022-11-15T10:17:16;6.30;;;2.33;;
13797;SDS011;6970;51.340;3.240;2022-11-15T10:20:28;3.93;;;1.43;;
13797;SDS011;6970;51.340;3.240;2022-11-15T10:23:01;5.30;;;1.60;;
13797;SDS011;6970;51.340;3.240;2022-11-15T10:25:33;5.37;;;1.63;;
13797;SDS011;6970;51.340;3.240;2022-11-15T10:31:11;4.97;;;1.60;;
13797;SDS011;6970;51.340;3.240;2022-11-15T10:34:14;4.03;;;1.67;;
13797;SDS011;6970;51.340;3.240;2022-11-15T10:36:56;4.90;;;1.63;;
13797;SDS011;6970;51.340;3.240;2022-11-15T10:39:27;10.53;;;1.70;;
13797;SDS011;6970;51.340;3.240;2022-11-15T10:41:56;9.83;;;1.50;;
13797;SDS011;6970;51.340;3.240;2022-11-15T10:44:28;4.77;;;1.77;;
13797;SDS011;6970;51.340;3.240;2022-11-15T10:49:34;4.83;;;1.50;;
13797;SDS011;6970;51.340;3.240;2022-11-15T10:55:29;2.90;;;1.30;;
13797;SDS011;6970;51.340;3.240;2022-11-15T10:57:54;5.80;;;1.40;;
13797;SDS011;6970;51.340;3.240;2022-11-15T11:00:37;4.10;;;1.47;;
13797;SDS011;6970;51.340;3.240;2022-11-15T11:06:24;4.63;;;1.27;;
13797;SDS011;6970;51.340;3.240;2022-11-15T11:09:02;3.40;;;1.50;;
13797;SDS011;6970;51.340;3.240;2022-11-15T11:11:44;6.93;;;1.50;;
13797;SDS011;6970;51.340;3.240;2022-11-15T11:14:13;9.60;;;1.50;;
13797;SDS011;6970;51.340;3.240;2022-11-15T11:17:16;4.53;;;1.60;;
13797;SDS011;6970;51.340;3.240;2022-11-15T11:20:18;4.73;;;1.60;;
13797;SDS011;6970;51.340;3.240;2022-11-15T11:25:34;4.37;;;1.50;;
13797;SDS011;6970;51.340;3.240;2022-11-15T11:48:01;7.40;;;1.63;;
13797;SDS011;6970;51.340;3.240;2022-11-15T11:50:37;5.17;;;1.80;;
13797;SDS011;6970;51.340;3.240;2022-11-15T11:53:26;8.87;;;2.03;;
13797;SDS011;6970;51.340;3.240;2022-11-15T11:56:04;5.27;;;1.87;;
13797;SDS011;6970;51.340;3.240;2022-11-15T11:58:54;10.73;;;2.20;;
13797;SDS011;6970;51.340;3.240;2022-11-15T12:01:36;6.57;;;1.47;;
13797;SDS011;6970;51.340;3.240;2022-11-15T12:06:55;4.43;;;1.60;;
13797;SDS011;6970;51.340;3.240;2022-11-15T12:15:15;5.23;;;2.20;;
13797;SDS011;6970;51.340;3.240;2022-11-15T12:17:58;5.60;;;1.67;;
13797;SDS011;6970;51.340;3.240;2022-11-15T12:23:13;6.17;;;1.57;;
13797;SDS011;6970;51.340;3.240;2022-11-15T12:25:56;8.33;;;1.60;;
13797;SDS011;6970;51.340;3.240;2022-11-15T12:28:39;5.63;;;1.80;;
13797;SDS011;6970;51.340;3.240;2022-11-15T12:31:38;5.63;;;1.80;;
13797;SDS011;6970;51.340;3.240;2022-11-15T12:45:45;3.30;;;1.17;;
13797;SDS011;6970;51.340;3.240;2022-11-15T12:50:56;3.67;;;1.40;;
13797;SDS011;6970;51.340;3.240;2022-11-15T12:58:44;4.10;;;1.33;;
13797;SDS011;6970;51.340;3.240;2022-11-15T13:06:42;4.67;;;1.73;;
13797;SDS011;6970;51.340;3.240;2022-11-15T13:14:51;5.73;;;1.73;;
13797;SDS011;6970;51.340;3.240;2022-11-15T13:22:39;4.20;;;1.50;;
13797;SDS011;6970;51.340;3.240;2022-11-15T13:33:44;4.83;;;1.63;;
13797;SDS011;6970;51.340;3.240;2022-11-15T13:36:23;3.87;;;1.60;;
13797;SDS011;6970;51.340;3.240;2022-11-15T13:39:00;6.83;;;2.20;;
13797;SDS011;6970;51.340;3.240;2022-11-15T13:49:42;5.10;;;1.57;;
13797;SDS011;6970;51.340;3.240;2022-11-15T13:52:13;5.17;;;2.00;;
13797;SDS011;6970;51.340;3.240;2022-11-15T13:54:44;5.50;;;1.70;;
13797;SDS011;6970;51.340;3.240;2022-11-15T14:02:50;6.13;;;1.80;;
13797;SDS011;6970;51.340;3.240;2022-11-15T14:05:24;4.10;;;1.80;;
13797;SDS011;6970;51.340;3.240;2022-11-15T14:08:02;3.07;;;1.67;;
13797;SDS011;6970;51.340;3.240;2022-11-15T14:10:42;2.23;;;1.70;;
13797;SDS011;6970;51.340;3.240;2022-11-15T14:18:59;6.70;;;1.77;;
13797;SDS011;6970;51.340;3.240;2022-11-15T14:21:26;4.97;;;1.70;;
13797;SDS011;6970;51.340;3.240;2022-11-15T14:29:28;3.63;;;2.10;;
13797;SDS011;6970;51.340;3.240;2022-11-15T14:37:33;3.53;;;2.40;;
13797;SDS011;6970;51.340;3.240;2022-11-15T14:40:04;4.70;;;2.23;;
13797;SDS011;6970;51.340;3.240;2022-11-15T14:45:11;2.27;;;1.90;;
13797;SDS011;6970;51.340;3.240;2022-11-15T14:47:41;3.80;;;2.60;;
13797;SDS011;6970;51.340;3.240;2022-11-15T14:50:16;4.80;;;2.47;;
13797;SDS011;6970;51.340;3.240;2022-11-15T14:52:47;4.67;;;2.20;;
13797;SDS011;6970;51.340;3.240;2022-11-15T14:55:24;3.90;;;2.60;;
13797;SDS011;6970;51.340;3.240;2022-11-15T14:57:55;5.97;;;2.53;;
13797;SDS011;6970;51.340;3.240;2022-11-15T15:00:25;2.73;;;2.03;;
13797;SDS011;6970;51.340;3.240;2022-11-15T15:05:40;3.77;;;2.50;;
13797;SDS011;6970;51.340;3.240;2022-11-15T15:08:09;3.67;;;2.00;;
13797;SDS011;6970;51.340;3.240;2022-11-15T15:10:42;3.20;;;2.50;;
13797;SDS011;6970;51.340;3.240;2022-11-15T15:13:19;5.67;;;2.73;;
13797;SDS011;6970;51.340;3.240;2022-11-15T15:15:54;2.83;;;2.53;;
13797;SDS011;6970;51.340;3.240;2022-11-15T15:18:21;4.13;;;3.00;;
13797;SDS011;6970;51.340;3.240;2022-11-15T15:20:55;3.70;;;2.93;;
13797;SDS011;6970;51.340;3.240;2022-11-15T15:23:26;5.33;;;3.20;;
13797;SDS011;6970;51.340;3.240;2022-11-15T15:25:55;3.43;;;2.80;;
13797;SDS011;6970;51.340;3.240;2022-11-15T15:28:24;3.30;;;2.63;;
13797;SDS011;6970;51.340;3.240;2022-11-15T15:30:59;3.13;;;2.80;;
13797;SDS011;6970;51.340;3.240;2022-11-15T15:33:26;3.57;;;3.27;;
13797;SDS011;6970;51.340;3.240;2022-11-15T15:35:53;3.30;;;2.97;;
13797;SDS011;6970;51.340;3.240;2022-11-15T15:38:20;4.60;;;3.30;;
13797;SDS011;6970;51.340;3.240;2022-11-15T15:40:47;3.53;;;3.23;;
13797;SDS011;6970;51.340;3.240;2022-11-15T15:43:17;4.73;;;3.70;;
13797;SDS011;6970;51.340;3.240;2022-11-15T15:45:45;4.47;;;3.73;;
13797;SDS011;6970;51.340;3.240;2022-11-15T15:48:15;3.60;;;3.30;;
13797;SDS011;6970;51.340;3.240;2022-11-15T15:53:16;3.80;;;3.40;;
13797;SDS011;6970;51.340;3.240;2022-11-15T15:55:43;5.07;;;4.10;;
13797;SDS011;6970;51.340;3.240;2022-11-15T16:03:12;4.97;;;4.37;;
13797;SDS011;6970;51.340;3.240;2022-11-15T16:05:39;7.00;;;4.07;;
13797;SDS011;6970;51.340;3.240;2022-11-15T16:08:42;5.17;;;4.73;;
13797;SDS011;6970;51.340;3.240;2022-11-15T16:11:25;5.23;;;4.50;;
13797;SDS011;6970;51.340;3.240;2022-11-15T16:13:55;5.17;;;4.77;;
13797;SDS011;6970;51.340;3.240;2022-11-15T16:16:24;4.93;;;4.50;;
13797;SDS011;6970;51.340;3.240;2022-11-15T16:21:23;5.40;;;5.00;;
13797;SDS011;6970;51.340;3.240;2022-11-15T16:23:51;5.13;;;4.73;;
13797;SDS011;6970;51.340;3.240;2022-11-15T16:26:24;5.47;;;5.07;;
13797;SDS011;6970;51.340;3.240;2022-11-15T16:31:26;5.17;;;4.67;;
13797;SDS011;6970;51.340;3.240;2022-11-15T16:33:56;5.30;;;4.77;;
13797;SDS011;6970;51.340;3.240;2022-11-15T16:36:24;5.13;;;4.73;;
13797;SDS011;6970;51.340;3.240;2022-11-15T16:41:27;5.10;;;4.63;;
13797;SDS011;6970;51.340;3.240;2022-11-15T16:43:55;5.23;;;4.73;;
13797;SDS011;6970;51.340;3.240;2022-11-15T16:46:25;4.97;;;4.50;;
13797;SDS011;6970;51.340;3.240;2022-11-15T16:48:53;5.23;;;4.73;;
13797;SDS011;6970;51.340;3.240;2022-11-15T16:51:22;4.80;;;4.40;;
13797;SDS011;6970;51.340;3.240;2022-11-15T16:53:49;5.67;;;5.07;;
13797;SDS011;6970;51.340;3.240;2022-11-15T16:56:28;5.53;;;5.13;;
13797;SDS011;6970;51.340;3.240;2022-11-15T17:01:30;5.03;;;4.63;;
13797;SDS011;6970;51.340;3.240;2022-11-15T17:04:02;5.77;;;5.30;;
13797;SDS011;6970;51.340;3.240;2022-11-15T17:06:42;5.33;;;4.90;;
13797;SDS011;6970;51.340;3.240;2022-11-15T17:09:13;5.77;;;4.57;;
13797;SDS011;6970;51.340;3.240;2022-11-15T17:11:43;6.00;;;4.50;;
13797;SDS011;6970;51.340;3.240;2022-11-15T17:14:14;4.57;;;4.20;;
13797;SDS011;6970;51.340;3.240;2022-11-15T17:19:13;4.83;;;4.47;;
13797;SDS011;6970;51.340;3.240;2022-11-15T17:21:42;5.67;;;5.17;;
13797;SDS011;6970;51.340;3.240;2022-11-15T17:24:12;4.80;;;4.33;;
13797;SDS011;6970;51.340;3.240;2022-11-15T17:26:42;5.57;;;5.10;;
13797;SDS011;6970;51.340;3.240;2022-11-15T17:31:41;5.77;;;5.27;;
13797;SDS011;6970;51.340;3.240;2022-11-15T17:34:10;5.40;;;5.00;;
13797;SDS011;6970;51.340;3.240;2022-11-15T17:36:38;5.40;;;5.00;;
13797;SDS011;6970;51.340;3.240;2022-11-15T17:39:06;5.27;;;4.80;;
13797;SDS011;6970;51.340;3.240;2022-11-15T17:41:36;5.03;;;4.63;;
13797;SDS011;6970;51.340;3.240;2022-11-15T17:46:35;5.30;;;4.90;;
13797;SDS011;6970;51.340;3.240;2022-11-15T17:49:04;5.13;;;4.63;;
13797;SDS011;6970;51.340;3.240;2022-11-15T17:54:04;5.60;;;5.03;;
13797;SDS011;6970;51.340;3.240;2022-11-15T17:56:33;5.60;;;5.20;;
13797;SDS011;6970;51.340;3.240;2022-11-15T17:59:06;6.20;;;5.67;;
13797;SDS011;6970;51.340;3.240;2022-11-15T18:01:41;5.80;;;5.40;;
13797;SDS011;6970;51.340;3.240;2022-11-15T18:06:41;5.73;;;5.23;;
13797;SDS011;6970;51.340;3.240;2022-11-15T18:09:11;6.10;;;5.60;;
13797;SDS011;6970;51.340;3.240;2022-11-15T18:14:14;5.80;;;5.30;;
13797;SDS011;6970;51.340;3.240;2022-11-15T18:16:41;5.43;;;4.93;;
13797;SDS011;6970;51.340;3.240;2022-11-15T18:19:08;6.20;;;5.70;;
13797;SDS011;6970;51.340;3.240;2022-11-15T18:21:41;6.53;;;5.93;;
13797;SDS011;6970;51.340;3.240;2022-11-15T18:27:04;5.50;;;5.10;;
13797;SDS011;6970;51.340;3.240;2022-11-15T18:29:35;5.93;;;5.43;;
13797;SDS011;6970;51.340;3.240;2022-11-15T18:32:04;6.50;;;5.93;;
13797;SDS011;6970;51.340;3.240;2022-11-15T18:34:37;6.20;;;5.60;;
13797;SDS011;6970;51.340;3.240;2022-11-15T18:37:03;6.07;;;5.57;;
13797;SDS011;6970;51.340;3.240;2022-11-15T18:39:31;6.60;;;6.00;;
13797;SDS011;6970;51.340;3.240;2022-11-15T18:41:58;6.37;;;5.90;;
13797;SDS011;6970;51.340;3.240;2022-11-15T18:44:26;6.13;;;5.63;;
13797;SDS011;6970;51.340;3.240;2022-11-15T18:46:54;5.87;;;5.47;;
13797;SDS011;6970;51.340;3.240;2022-11-15T18:49:21;6.70;;;6.10;;
13797;SDS011;6970;51.340;3.240;2022-11-15T18:51:48;6.40;;;5.90;;
13797;SDS011;6970;51.340;3.240;2022-11-15T18:54:15;7.10;;;6.43;;
13797;SDS011;6970;51.340;3.240;2022-11-15T18:56:43;10.97;;;6.37;;
13797;SDS011;6970;51.340;3.240;2022-11-15T18:59:11;6.60;;;6.00;;